Time;durP1;ratioP1;P1;durP2;ratioP2;P2;SDS_P1;SDS_P2;PMS_P1;PMS_P2;Temp;Humidity;BMP_temperature;BMP_pressure;BME280_temperature;BME280_humidity;BME280_pressure;Samples;Min_cycle;Max_cycle;Signal;HPM_P1;HPM_P2
2022/01/28 00:00:40;;;;;;;8.37;5.83;;;;;;;1.45;100.00;100484.13;5087737;28;20260;-72
2022/01/28 00:03:08;;;;;;;9.03;5.87;;;;;;;1.46;100.00;100485.88;5073782;28;20195;-71
2022/01/28 00:05:36;;;;;;;4.97;4.47;;;;;;;1.29;100.00;100487.44;5087066;28;20187;-72
2022/01/28 00:08:05;;;;;;;9.03;5.67;;;;;;;1.46;100.00;100481.63;5079179;28;20245;-71
2022/01/28 00:10:34;;;;;;;5.73;4.33;;;;;;;1.52;100.00;100472.56;5075886;28;20191;-72
2022/01/28 00:13:22;;;;;;;6.13;4.43;;;;;;;1.49;100.00;100451.16;5090910;28;20586;-72
2022/01/28 00:16:07;;;;;;;6.73;4.63;;;;;;;1.96;95.12;100461.44;5073078;28;20230;-71
2022/01/28 00:38:12;;;;;;;5.33;3.20;;;;;;;2.69;79.78;100423.56;5071981;28;20201;-72
2022/01/28 00:40:40;;;;;;;3.77;3.37;;;;;;;2.70;78.43;100410.84;5073071;28;20229;-72
2022/01/28 00:43:08;;;;;;;5.57;3.93;;;;;;;2.70;78.67;100402.28;5073399;28;20203;-71
2022/01/28 00:45:36;;;;;;;5.20;3.40;;;;;;;2.68;79.35;100391.94;5089719;28;20684;-73
2022/01/28 00:48:03;;;;;;;4.33;3.63;;;;;;;2.72;79.78;100398.09;5073621;28;20618;-73
2022/01/28 00:50:29;;;;;;;3.27;2.97;;;;;;;2.68;80.31;100383.38;5077780;28;20199;-73
2022/01/28 00:52:56;;;;;;;3.47;3.13;;;;;;;2.65;81.22;100386.69;5087402;28;20194;-75
2022/01/28 00:55:23;;;;;;;4.27;3.87;;;;;;;2.59;80.82;100383.81;5072696;28;20195;-71
2022/01/28 00:57:50;;;;;;;3.93;3.03;;;;;;;2.70;79.94;100374.13;5072145;28;20198;-75
2022/01/28 01:00:18;;;;;;;6.47;4.27;;;;;;;2.69;79.23;100377.47;5078458;28;20660;-72
2022/01/28 01:02:45;;;;;;;3.80;3.37;;;;;;;2.87;77.76;100378.41;5092071;28;20572;-72
2022/01/28 01:05:12;;;;;;;4.13;3.23;;;;;;;2.91;77.00;100368.41;5072606;28;20198;-72
2022/01/28 01:07:40;;;;;;;4.30;3.87;;;;;;;2.90;76.39;100368.31;5071582;28;20214;-72
2022/01/28 01:10:08;;;;;;;5.63;4.07;;;;;;;3.12;75.13;100371.13;5072135;28;20248;-72
2022/01/28 01:12:41;;;;;;;3.77;3.27;;;;;;;3.08;74.38;100358.97;5072379;28;20199;-72
2022/01/28 01:15:09;;;;;;;4.67;3.40;;;;;;;2.98;73.92;100349.97;5071201;28;20222;-72
2022/01/28 01:17:41;;;;;;;3.17;2.60;;;;;;;3.10;74.13;100352.28;5072468;28;20191;-72
2022/01/28 01:20:19;;;;;;;3.00;2.43;;;;;;;2.92;73.94;100341.13;5071201;28;20202;-72
2022/01/28 01:22:53;;;;;;;2.60;2.40;;;;;;;2.99;72.97;100348.28;5071659;28;20198;-72
2022/01/28 01:25:26;;;;;;;4.67;3.27;;;;;;;2.98;72.09;100341.41;5071930;28;20199;-73
2022/01/28 01:27:57;;;;;;;6.10;3.73;;;;;;;3.00;71.30;100329.53;5071593;28;20267;-73
2022/01/28 01:30:28;;;;;;;3.53;3.30;;;;;;;3.11;70.22;100328.38;5072087;28;20198;-72
2022/01/28 01:32:56;;;;;;;2.37;2.27;;;;;;;3.15;70.09;100322.59;5074968;28;20753;-73
2022/01/28 01:35:23;;;;;;;3.20;2.97;;;;;;;3.14;69.28;100315.72;5083500;28;20194;-72
2022/01/28 01:37:49;;;;;;;3.40;3.10;;;;;;;3.11;69.05;100305.34;5091710;28;20301;-72
2022/01/28 01:40:25;;;;;;;2.70;2.50;;;;;;;3.17;68.80;100307.31;5079001;28;20187;-72
2022/01/28 01:43:03;;;;;;;3.27;3.00;;;;;;;2.99;68.33;100276.59;5092313;28;20218;-72
2022/01/28 01:45:56;;;;;;;2.33;2.23;;;;;;;3.14;68.50;100300.34;5080358;28;20210;-72
2022/01/28 01:53:54;;;;;;;3.37;3.07;;;;;;;3.36;67.43;100285.19;5083358;28;20197;-72
2022/01/28 01:56:22;;;;;;;2.50;2.30;;;;;;;3.45;66.60;100288.19;5079515;28;20262;-72
2022/01/28 01:58:48;;;;;;;3.27;2.60;;;;;;;3.36;66.43;100274.94;5075305;28;20273;-73
2022/01/28 02:01:15;;;;;;;2.03;1.93;;;;;;;3.29;66.07;100242.16;5071535;28;20209;-72
2022/01/28 02:03:44;;;;;;;1.90;1.80;;;;;;;3.50;65.90;100267.88;5072437;28;20631;-73
2022/01/28 02:06:11;;;;;;;7.80;2.67;;;;;;;3.37;65.57;100245.97;5070897;28;20478;-73
2022/01/28 02:08:38;;;;;;;2.87;2.67;;;;;;;3.45;65.73;100254.00;5071347;28;20778;-72
2022/01/28 02:11:05;;;;;;;3.83;2.63;;;;;;;3.43;65.54;100250.47;5071315;28;20573;-72
2022/01/28 02:13:35;;;;;;;5.97;3.27;;;;;;;3.41;66.20;100242.72;5088523;28;20190;-72
2022/01/28 02:16:02;;;;;;;2.87;2.67;;;;;;;3.44;66.00;100236.84;5079857;28;20625;-73
2022/01/28 02:18:29;;;;;;;2.77;2.57;;;;;;;3.41;66.42;100237.59;5089396;28;20683;-72
2022/01/28 02:21:04;;;;;;;3.53;2.60;;;;;;;3.54;65.89;100239.03;5091455;28;20577;-72
2022/01/28 02:23:31;;;;;;;2.73;2.53;;;;;;;3.56;65.34;100226.28;5089203;28;20186;-72
2022/01/28 02:25:59;;;;;;;3.97;3.43;;;;;;;3.63;65.38;100230.88;5085481;28;20269;-72
2022/01/28 02:28:28;;;;;;;3.13;2.80;;;;;;;3.66;64.77;100225.88;5071435;28;20231;-72
2022/01/28 02:30:55;;;;;;;3.13;2.50;;;;;;;3.55;64.74;100196.31;5071291;28;20657;-72
2022/01/28 02:33:24;;;;;;;2.23;2.13;;;;;;;3.78;64.49;100223.88;5077744;28;20603;-73
2022/01/28 02:35:51;;;;;;;3.20;3.00;;;;;;;3.73;64.19;100223.66;5071123;28;20191;-71
2022/01/28 02:38:21;;;;;;;3.50;2.60;;;;;;;3.76;63.77;100199.84;5071083;28;20198;-72
2022/01/28 02:40:54;;;;;;;3.00;2.80;;;;;;;3.79;63.81;100234.19;5071918;28;20747;-73
2022/01/28 02:43:30;;;;;;;2.60;2.03;;;;;;;3.75;64.42;100233.97;5078185;28;20233;-72
2022/01/28 02:46:04;;;;;;;3.77;2.83;;;;;;;3.65;63.87;100198.47;5089738;28;20194;-72
2022/01/28 02:48:32;;;;;;;1.70;1.60;;;;;;;3.50;63.66;100191.00;5088597;28;20257;-72
2022/01/28 02:51:05;;;;;;;2.93;2.47;;;;;;;3.78;64.00;100227.28;5090067;28;20213;-73
2022/01/28 02:53:43;;;;;;;5.73;3.57;;;;;;;3.74;63.56;100211.72;5077863;28;20190;-72
2022/01/28 02:56:18;;;;;;;3.67;3.33;;;;;;;3.89;63.19;100222.63;5070943;28;20286;-72
2022/01/28 02:58:46;;;;;;;3.13;2.87;;;;;;;3.92;63.30;100223.63;5071254;28;20244;-72
2022/01/28 03:01:14;;;;;;;3.50;3.20;;;;;;;3.85;62.79;100220.78;5071099;28;20191;-73
2022/01/28 03:03:42;;;;;;;3.97;3.40;;;;;;;3.80;63.03;100227.38;5085204;28;20293;-72
2022/01/28 03:06:09;;;;;;;3.37;2.97;;;;;;;3.90;63.27;100227.84;5090110;28;20210;-72
2022/01/28 03:08:41;;;;;;;4.80;3.23;;;;;;;3.71;62.98;100227.84;5090879;28;20214;-72
2022/01/28 03:11:30;;;;;;;3.93;3.53;;;;;;;3.79;63.40;100235.88;5091397;28;20309;-72
2022/01/28 03:14:17;;;;;;;3.23;2.93;;;;;;;3.57;65.09;100228.06;5088367;28;20557;-72
2022/01/28 03:17:10;;;;;;;4.07;3.20;;;;;;;3.14;67.42;100232.91;5094736;28;20230;-72
2022/01/28 03:19:47;;;;;;;5.07;3.93;;;;;;;2.62;70.42;100232.09;5094149;28;20197;-72
2022/01/28 03:22:14;;;;;;;4.43;3.73;;;;;;;2.24;74.02;100217.41;5084490;28;20186;-73
2022/01/28 03:24:46;;;;;;;4.57;3.70;;;;;;;1.96;78.25;100216.00;5074540;28;20199;-72
2022/01/28 03:27:21;;;;;;;10.80;6.13;;;;;;;1.59;87.23;100211.50;5084856;28;20194;-72
2022/01/28 03:29:48;;;;;;;4.63;3.40;;;;;;;1.35;91.94;100200.88;5094071;28;20362;-72
2022/01/28 03:32:14;;;;;;;9.33;4.87;;;;;;;1.29;94.44;100210.75;5094451;28;20194;-72
2022/01/28 03:34:41;;;;;;;7.30;5.33;;;;;;;1.26;100.00;100211.47;5080027;28;20588;-73
2022/01/28 03:37:09;;;;;;;8.87;6.30;;;;;;;1.17;100.00;100205.88;5073729;28;20194;-72
2022/01/28 03:39:36;;;;;;;8.43;6.47;;;;;;;1.11;100.00;100202.09;5073681;28;20237;-72
2022/01/28 03:42:06;;;;;;;12.63;7.83;;;;;;;0.99;100.00;100194.66;5074428;28;20252;-72
2022/01/28 03:44:34;;;;;;;11.83;7.50;;;;;;;1.01;100.00;100198.16;5092533;28;20229;-72
2022/01/28 03:47:01;;;;;;;11.87;7.27;;;;;;;0.98;100.00;100182.69;5092216;28;20190;-72
2022/01/28 03:49:28;;;;;;;11.73;8.03;;;;;;;1.02;100.00;100199.06;5093522;28;20221;-72
2022/01/28 03:51:55;;;;;;;12.20;7.23;;;;;;;0.93;100.00;100196.88;5087089;28;20199;-72
2022/01/28 03:54:21;;;;;;;217.30;64.60;;;;;;;0.59;100.00;100155.00;5084791;28;20255;-72
2022/01/28 03:56:48;;;;;;;51.33;18.97;;;;;;;0.81;100.00;100192.00;5087023;28;20271;-72
2022/01/28 03:59:16;;;;;;;21.53;10.57;;;;;;;0.64;100.00;100162.13;5082488;28;20726;-72
2022/01/28 04:01:45;;;;;;;10.67;6.63;;;;;;;0.57;100.00;100156.59;5075997;28;20199;-72
2022/01/28 04:12:30;;;;;;;16.57;7.90;;;;;;;0.67;100.00;100163.97;5093677;28;20197;-72
2022/01/28 04:15:08;;;;;;;23.60;8.97;;;;;;;0.67;100.00;100169.06;5087552;28;20664;-72
2022/01/28 04:17:35;;;;;;;10.33;6.87;;;;;;;0.74;100.00;100168.59;5091975;28;20197;-72
2022/01/28 04:20:02;;;;;;;7.90;6.10;;;;;;;0.77;100.00;100162.00;5077142;28;20195;-72
2022/01/28 04:22:29;;;;;;;17.13;8.40;;;;;;;0.89;100.00;100170.31;5073265;28;20636;-73
2022/01/28 04:24:56;;;;;;;12.93;8.23;;;;;;;0.95;100.00;100174.88;5073387;28;20202;-72
2022/01/28 04:27:22;;;;;;;12.20;8.03;;;;;;;0.97;100.00;100166.50;5087124;28;20266;-72
2022/01/28 04:29:49;;;;;;;12.47;7.93;;;;;;;1.02;100.00;100163.31;5089823;28;20218;-72
2022/01/28 04:32:18;;;;;;;16.37;7.80;;;;;;;0.99;100.00;100154.72;5073051;28;20191;-71
2022/01/28 04:34:46;;;;;;;15.20;8.57;;;;;;;0.72;100.00;100109.81;5087256;28;20194;-72
2022/01/28 04:37:22;;;;;;;17.27;8.70;;;;;;;1.00;100.00;100158.13;5090602;28;20190;-72
2022/01/28 04:39:53;;;;;;;13.40;8.13;;;;;;;0.97;100.00;100135.00;5090541;28;20267;-72
2022/01/28 04:42:41;;;;;;;23.90;10.40;;;;;;;1.11;100.00;100172.34;5092389;28;20187;-72
2022/01/28 04:45:16;;;;;;;85.83;27.13;;;;;;;1.22;100.00;100158.47;5071409;28;20199;-72
2022/01/28 04:47:52;;;;;;;58.43;19.87;;;;;;;1.29;100.00;100155.44;5074632;28;20630;-73
2022/01/28 04:50:29;;;;;;;39.93;16.47;;;;;;;1.33;100.00;100152.25;5080034;28;20221;-72
2022/01/28 04:53:16;;;;;;;29.60;13.10;;;;;;;1.18;100.00;100130.16;5088206;28;20190;-72
2022/01/28 04:58:46;;;;;;;41.63;15.83;;;;;;;1.25;100.00;100147.56;5074674;28;20205;-72
2022/01/28 05:01:32;;;;;;;23.57;12.50;;;;;;;1.12;100.00;100135.81;5078469;28;20190;-72
2022/01/28 05:04:17;;;;;;;23.70;11.80;;;;;;;1.25;100.00;100152.66;5078132;28;20595;-72
2022/01/28 05:10:06;;;;;;;26.77;12.90;;;;;;;1.34;100.00;100163.34;5071115;28;20220;-72
2022/01/28 05:15:40;;;;;;;21.17;10.63;;;;;;;1.40;100.00;100156.88;5072447;28;20356;-72
2022/01/28 05:24:09;;;;;;;40.37;16.47;;;;;;;1.56;100.00;100155.13;5082912;28;20231;-72
2022/01/28 05:26:38;;;;;;;39.67;16.27;;;;;;;1.26;100.00;100098.22;5071788;28;20198;-72
2022/01/28 05:29:05;;;;;;;40.17;16.33;;;;;;;1.56;100.00;100142.34;5081119;28;20302;-72
2022/01/28 05:31:32;;;;;;;57.30;24.13;;;;;;;2.07;100.00;100167.13;5092092;28;20194;-74
2022/01/28 05:33:59;;;;;;;50.40;22.90;;;;;;;2.22;100.00;100168.72;5089909;28;20194;-71
2022/01/28 05:36:27;;;;;;;52.40;22.07;;;;;;;2.10;100.00;100172.38;5089062;28;20362;-72
2022/01/28 05:38:54;;;;;;;74.27;23.93;;;;;;;2.00;100.00;100171.03;5091301;28;20194;-72
2022/01/28 05:41:21;;;;;;;64.57;20.43;;;;;;;1.96;100.00;100177.66;5075188;28;20214;-71
2022/01/28 05:43:47;;;;;;;18.20;9.03;;;;;;;1.97;100.00;100176.00;5071126;28;20669;-72
2022/01/28 05:46:14;;;;;;;38.60;14.33;;;;;;;1.95;100.00;100173.38;5090566;28;20570;-71
2022/01/28 05:48:41;;;;;;;46.03;16.57;;;;;;;1.97;98.69;100163.22;5090082;28;20190;-72
2022/01/28 05:51:08;;;;;;;37.23;14.13;;;;;;;1.95;97.58;100169.94;5090792;28;20708;-71
2022/01/28 05:53:36;;;;;;;43.20;16.40;;;;;;;1.92;98.29;100172.34;5082197;28;20226;-72
2022/01/28 05:56:03;;;;;;;33.10;13.40;;;;;;;1.97;98.75;100181.09;5071348;28;20202;-71
2022/01/28 05:58:30;;;;;;;42.00;14.43;;;;;;;2.08;97.34;100173.97;5090306;28;20194;-71
2022/01/28 06:00:57;;;;;;;21.07;10.30;;;;;;;2.14;96.74;100180.25;5090383;28;20202;-71
2022/01/28 06:03:24;;;;;;;26.37;11.73;;;;;;;2.21;97.04;100187.44;5084374;28;20198;-72
2022/01/28 06:05:51;;;;;;;24.03;11.37;;;;;;;2.24;96.39;100187.63;5084453;28;20217;-72
2022/01/28 06:08:17;;;;;;;29.10;11.93;;;;;;;2.25;96.17;100199.56;5084962;28;20194;-71
2022/01/28 06:10:45;;;;;;;36.23;13.40;;;;;;;2.33;95.62;100197.41;5071303;28;20712;-72
2022/01/28 06:13:12;;;;;;;34.40;13.23;;;;;;;2.34;95.90;100199.16;5077029;28;20198;-73
2022/01/28 06:15:42;;;;;;;37.03;14.90;;;;;;;2.32;96.07;100204.19;5091315;28;20230;-72
2022/01/28 06:18:09;;;;;;;59.87;18.43;;;;;;;2.38;96.77;100196.84;5088805;28;20211;-72
2022/01/28 06:20:37;;;;;;;53.73;18.60;;;;;;;2.36;97.17;100203.53;5089175;28;20720;-72
2022/01/28 06:23:04;;;;;;;59.37;23.03;;;;;;;2.43;97.68;100205.59;5091030;28;20217;-72
2022/01/28 06:25:31;;;;;;;54.73;19.50;;;;;;;2.39;98.39;100208.81;5091474;28;20202;-72
2022/01/28 06:27:59;;;;;;;60.70;21.97;;;;;;;2.58;97.49;100207.16;5091701;28;20217;-73
2022/01/28 06:30:26;;;;;;;56.10;20.20;;;;;;;2.69;95.24;100203.44;5091133;28;20230;-74
2022/01/28 06:32:53;;;;;;;56.80;20.00;;;;;;;2.80;95.17;100207.38;5086640;28;20191;-72
2022/01/28 06:35:20;;;;;;;49.83;21.90;;;;;;;2.88;94.01;100211.19;5071211;28;20241;-72
2022/01/28 06:37:47;;;;;;;63.70;27.70;;;;;;;2.99;91.67;100184.41;5070651;28;20607;-72
2022/01/28 06:40:17;;;;;;;144.03;68.83;;;;;;;3.09;89.77;100207.06;5078559;28;20197;-74
2022/01/28 06:42:44;;;;;;;85.33;36.10;;;;;;;3.31;88.15;100209.81;5071051;28;20244;-72
2022/01/28 06:45:13;;;;;;;79.27;32.17;;;;;;;3.39;84.32;100218.69;5070899;28;20200;-72
2022/01/28 06:47:40;;;;;;;47.00;20.23;;;;;;;3.36;79.78;100186.94;5071411;28;20273;-72
2022/01/28 06:50:09;;;;;;;73.53;25.30;;;;;;;3.73;79.49;100226.22;5075222;28;20663;-72
2022/01/28 06:52:37;;;;;;;57.40;20.67;;;;;;;3.80;82.07;100232.50;5075338;28;20205;-72
2022/01/28 06:55:05;;;;;;;53.17;19.90;;;;;;;3.77;79.62;100232.38;5074852;28;20213;-72
2022/01/28 06:57:32;;;;;;;45.40;17.77;;;;;;;3.81;81.17;100234.25;5075230;28;20198;-72
2022/01/28 06:59:59;;;;;;;29.83;14.60;;;;;;;3.85;82.61;100244.69;5075467;28;20199;-71
2022/01/28 07:02:28;;;;;;;49.97;17.63;;;;;;;3.79;80.69;100247.00;5074703;28;20737;-72
2022/01/28 07:04:54;;;;;;;40.87;19.83;;;;;;;3.85;77.90;100252.41;5074719;28;20195;-71
2022/01/28 07:07:23;;;;;;;47.63;19.57;;;;;;;3.97;75.85;100241.81;5074145;28;20211;-71
2022/01/28 07:09:50;;;;;;;30.07;14.63;;;;;;;4.06;74.12;100242.22;5074391;28;20781;-71
2022/01/28 07:12:16;;;;;;;50.63;17.27;;;;;;;4.05;74.77;100212.25;5074600;28;20665;-72
2022/01/28 07:14:44;;;;;;;42.33;19.20;;;;;;;4.25;73.18;100221.66;5074766;28;20205;-73
2022/01/28 07:17:11;;;;;;;41.47;15.43;;;;;;;4.42;69.76;100212.94;5074252;28;20617;-72
2022/01/28 07:19:39;;;;;;;30.17;12.30;;;;;;;4.76;68.08;100234.88;5074487;28;20194;-73
2022/01/28 07:22:06;;;;;;;32.17;12.53;;;;;;;5.02;65.82;100236.81;5074790;28;20195;-72
2022/01/28 07:24:33;;;;;;;18.40;9.70;;;;;;;5.14;64.94;100242.41;5074651;28;20578;-73
2022/01/28 07:27:00;;;;;;;11.70;5.97;;;;;;;5.03;64.73;100243.66;5074620;28;20202;-72
2022/01/28 07:29:28;;;;;;;14.73;5.63;;;;;;;5.05;64.94;100247.19;5074483;28;20194;-73
2022/01/28 07:31:55;;;;;;;24.17;9.07;;;;;;;4.87;65.51;100218.19;5074113;28;20190;-73
2022/01/28 07:34:22;;;;;;;13.33;8.83;;;;;;;4.92;65.24;100253.53;5074210;28;20704;-72
2022/01/28 07:36:50;;;;;;;17.30;8.30;;;;;;;4.91;66.06;100261.19;5073410;28;20187;-74
2022/01/28 07:39:17;;;;;;;19.23;10.50;;;;;;;4.86;66.00;100244.69;5074003;28;20199;-73
2022/01/28 07:41:44;;;;;;;27.33;11.87;;;;;;;4.79;66.55;100255.53;5074286;28;20203;-72
2022/01/28 07:44:11;;;;;;;29.20;12.83;;;;;;;4.74;77.51;100262.19;5074055;28;20718;-79
2022/01/28 07:46:38;;;;;;;19.20;10.30;;;;;;;4.55;76.72;100259.69;5074262;28;20224;-72
2022/01/28 07:49:05;;;;;;;16.83;9.97;;;;;;;4.28;75.98;100237.16;5073975;28;20198;-73
2022/01/28 07:51:35;;;;;;;15.63;8.90;;;;;;;4.41;76.05;100252.28;5074081;28;20287;-74
2022/01/28 07:54:04;;;;;;;11.47;7.27;;;;;;;4.62;74.40;100253.97;5074002;28;20191;-73
2022/01/28 07:56:31;;;;;;;7.77;5.50;;;;;;;4.77;73.49;100254.63;5074827;28;20199;-73
2022/01/28 07:58:58;;;;;;;12.47;6.73;;;;;;;4.95;73.20;100261.38;5073669;28;20191;-74
2022/01/28 08:01:24;;;;;;;16.20;8.30;;;;;;;5.11;71.89;100259.38;5073889;28;20217;-74
2022/01/28 08:03:51;;;;;;;16.33;8.53;;;;;;;5.32;70.34;100258.53;5073561;28;20665;-74
2022/01/28 08:06:18;;;;;;;5.83;4.60;;;;;;;5.41;68.07;100251.19;5072601;28;20705;-74
2022/01/28 08:08:45;;;;;;;10.10;3.97;;;;;;;5.53;67.17;100245.59;5073840;28;20620;-73
2022/01/28 08:11:13;;;;;;;7.50;5.73;;;;;;;5.72;68.61;100247.19;5073782;28;20782;-75
2022/01/28 08:13:40;;;;;;;34.80;14.57;;;;;;;5.92;66.23;100241.09;5072707;28;20218;-75
2022/01/28 08:16:06;;;;;;;50.70;22.63;;;;;;;6.28;65.32;100232.06;5073470;28;20615;-75
2022/01/28 08:18:33;;;;;;;10.07;5.77;;;;;;;6.33;62.52;100230.53;5073719;28;20203;-75
2022/01/28 08:21:00;;;;;;;11.33;6.03;;;;;;;6.52;61.90;100238.91;5073663;28;20248;-75
2022/01/28 08:23:27;;;;;;;12.40;7.63;;;;;;;6.69;60.80;100228.31;5073735;28;20205;-74
2022/01/28 08:25:55;;;;;;;19.10;8.13;;;;;;;6.64;60.98;100216.09;5073533;28;20199;-73
2022/01/28 08:28:23;;;;;;;11.43;6.90;;;;;;;6.68;60.58;100216.25;5073368;28;20669;-75
2022/01/28 08:30:50;;;;;;;11.10;7.30;;;;;;;6.84;60.12;100209.91;5072970;28;20218;-74
2022/01/28 08:33:16;;;;;;;8.77;5.97;;;;;;;6.86;60.42;100211.69;5073195;28;20585;-75
2022/01/28 08:35:50;;;;;;;12.00;6.00;;;;;;;6.92;59.14;100219.63;5073289;28;20195;-75
2022/01/28 08:38:24;;;;;;;10.43;5.93;;;;;;;6.82;58.62;100185.78;5072629;28;20604;-75
2022/01/28 08:40:51;;;;;;;7.93;5.57;;;;;;;7.05;59.12;100168.44;5073238;28;20203;-74
2022/01/28 08:43:18;;;;;;;13.17;5.90;;;;;;;7.19;58.99;100156.84;5073030;28;20209;-72
2022/01/28 08:45:46;;;;;;;12.23;6.50;;;;;;;7.57;57.62;100181.16;5073204;28;20191;-76
2022/01/28 08:48:13;;;;;;;6.53;4.07;;;;;;;7.39;58.15;100120.47;5073239;28;20595;-75
2022/01/28 08:50:40;;;;;;;12.80;6.90;;;;;;;7.75;57.53;100171.34;5072914;28;20226;-75
2022/01/28 08:53:08;;;;;;;6.37;4.40;;;;;;;8.05;57.38;100208.34;5072845;28;20746;-74
2022/01/28 08:55:35;;;;;;;9.00;3.73;;;;;;;8.00;57.34;100199.59;5072704;28;20198;-76
2022/01/28 08:58:02;;;;;;;12.13;6.37;;;;;;;7.96;57.44;100198.63;5072887;28;20698;-76
2022/01/28 09:00:29;;;;;;;34.10;14.87;;;;;;;7.99;58.02;100215.91;5073077;28;20202;-74
2022/01/28 09:02:57;;;;;;;41.97;14.47;;;;;;;8.03;58.03;100220.31;5072356;28;20199;-75
2022/01/28 09:05:24;;;;;;;10.10;5.37;;;;;;;8.09;57.93;100215.34;5072838;28;20205;-75
2022/01/28 09:07:51;;;;;;;36.67;14.77;;;;;;;8.15;57.58;100224.94;5071901;28;20593;-74
2022/01/28 09:10:19;;;;;;;14.37;4.90;;;;;;;8.02;58.16;100197.94;5071963;28;20291;-73
2022/01/28 09:13:10;;;;;;;3.93;3.40;;;;;;;8.30;57.76;100226.28;5072175;28;20248;-74
2022/01/28 09:15:39;;;;;;;10.03;4.70;;;;;;;8.39;57.94;100230.78;5071861;28;20233;-74
2022/01/28 09:18:07;;;;;;;13.70;5.20;;;;;;;8.40;58.41;100236.00;5072203;28;20202;-73
2022/01/28 09:20:35;;;;;;;4.87;3.57;;;;;;;8.28;59.14;100217.59;5072511;28;20198;-77
2022/01/28 09:23:04;;;;;;;10.40;6.03;;;;;;;8.24;59.12;100220.88;5072320;28;20195;-75
2022/01/28 09:25:31;;;;;;;13.93;8.27;;;;;;;8.24;60.07;100215.72;5072379;28;20190;-73
2022/01/28 09:27:57;;;;;;;7.33;4.73;;;;;;;8.05;61.05;100212.63;5071802;28;20187;-75
2022/01/28 09:30:25;;;;;;;9.57;4.53;;;;;;;8.01;61.07;100229.75;5072221;28;20234;-76
2022/01/28 09:32:51;;;;;;;8.13;5.97;;;;;;;7.95;62.50;100232.16;5071836;28;20723;-75
2022/01/28 09:35:20;;;;;;;22.20;10.17;;;;;;;7.90;63.19;100213.06;5071928;28;20195;-72
2022/01/28 09:37:47;;;;;;;17.97;8.13;;;;;;;7.85;64.08;100235.28;5071590;28;20198;-75
2022/01/28 09:40:15;;;;;;;34.37;14.10;;;;;;;7.85;65.17;100230.13;5072409;28;20203;-72
2022/01/28 09:42:44;;;;;;;8.73;5.53;;;;;;;7.93;65.91;100234.69;5071865;28;20203;-75
2022/01/28 09:45:12;;;;;;;16.67;7.30;;;;;;;8.00;66.72;100227.97;5071930;28;20195;-74
2022/01/28 09:47:39;;;;;;;12.83;6.10;;;;;;;8.13;66.46;100224.94;5072115;28;20191;-73
2022/01/28 09:50:07;;;;;;;7.27;5.33;;;;;;;8.29;67.37;100234.84;5071544;28;20190;-73
2022/01/28 09:52:36;;;;;;;17.10;5.80;;;;;;;8.36;67.52;100229.00;5071813;28;20229;-73
2022/01/28 09:55:03;;;;;;;7.23;5.60;;;;;;;8.44;68.02;100219.75;5071988;28;20194;-73
2022/01/28 09:57:31;;;;;;;4.80;3.72;;;;;;;8.51;68.31;100236.28;5071718;28;20259;-73
2022/01/28 09:59:59;;;;;;;9.25;6.18;;;;;;;8.41;69.10;100204.19;5071818;28;20190;-71
2022/01/28 10:02:47;;;;;;;14.23;3.85;;;;;;;8.79;69.77;100217.16;5071515;28;20191;-72
2022/01/28 10:05:19;;;;;;;8.52;5.20;;;;;;;8.88;69.11;100230.31;5071109;28;20688;-77
2022/01/28 10:08:05;;;;;;;10.43;6.38;;;;;;;8.95;68.81;100209.78;5070405;28;20219;-75
2022/01/28 10:10:44;;;;;;;6.97;4.32;;;;;;;8.89;69.66;100213.94;5071605;28;20186;-76
2022/01/28 10:13:14;;;;;;;10.40;4.90;;;;;;;8.65;70.83;100208.19;5071889;28;20295;-76
2022/01/28 10:15:53;;;;;;;8.15;3.83;;;;;;;8.72;72.69;100210.97;5071487;28;20688;-75
2022/01/28 10:18:20;;;;;;;6.60;5.38;;;;;;;8.86;72.45;100221.63;5071444;28;20678;-74
2022/01/28 10:20:47;;;;;;;5.68;4.13;;;;;;;8.89;72.42;100198.44;5071602;28;20205;-74
2022/01/28 10:23:15;;;;;;;6.85;4.30;;;;;;;9.04;72.55;100218.59;5074937;28;20198;-74
2022/01/28 10:25:43;;;;;;;8.90;4.65;;;;;;;9.07;72.19;100218.66;5075862;28;20195;-75
2022/01/28 10:28:11;;;;;;;7.45;4.22;;;;;;;9.04;73.80;100214.31;5075699;28;20282;-77
2022/01/28 10:30:40;;;;;;;6.10;3.67;;;;;;;9.20;73.30;100216.44;5075316;28;20215;-76
2022/01/28 10:33:11;;;;;;;6.28;4.22;;;;;;;9.39;72.64;100212.50;5075211;28;20561;-75
2022/01/28 10:35:39;;;;;;;15.10;8.77;;;;;;;9.36;72.57;100218.50;5075612;28;20278;-74
2022/01/28 10:38:07;;;;;;;5.45;4.65;;;;;;;9.36;72.46;100227.97;5074584;28;20198;-77
2022/01/28 10:40:35;;;;;;;6.97;5.53;;;;;;;9.42;73.15;100218.63;5075515;28;20210;-75
2022/01/28 10:43:02;;;;;;;10.13;5.47;;;;;;;9.47;73.55;100205.78;5075106;28;20696;-74
2022/01/28 10:45:31;;;;;;;9.20;5.38;;;;;;;9.41;72.90;100206.56;5075407;28;20264;-74
2022/01/28 10:48:02;;;;;;;9.38;5.75;;;;;;;9.34;73.26;100198.63;5075305;28;20194;-76
2022/01/28 10:50:30;;;;;;;6.90;5.07;;;;;;;9.14;74.03;100174.88;5074885;28;20203;-76
2022/01/28 10:53:00;;;;;;;10.27;6.68;;;;;;;9.36;74.30;100215.03;5075190;28;20190;-73
2022/01/28 10:55:28;;;;;;;7.82;4.45;;;;;;;9.30;74.65;100202.84;5075032;28;20203;-74
2022/01/28 10:58:02;;;;;;;10.40;6.45;;;;;;;9.45;74.21;100213.50;5074717;28;20194;-74
2022/01/28 11:00:31;;;;;;;12.98;7.10;;;;;;;9.45;74.31;100197.97;5075466;28;20199;-73
2022/01/28 11:03:00;;;;;;;10.98;4.70;;;;;;;9.41;74.64;100223.78;5074935;28;20589;-76
2022/01/28 11:05:29;;;;;;;18.05;9.65;;;;;;;9.41;75.01;100216.91;5075027;28;20674;-75
2022/01/28 11:07:57;;;;;;;20.20;8.43;;;;;;;9.53;74.50;100211.09;5074030;28;20306;-75
2022/01/28 11:10:24;;;;;;;27.98;12.07;;;;;;;9.51;74.68;100209.31;5074915;28;20701;-79
2022/01/28 11:12:53;;;;;;;6.38;4.15;;;;;;;9.14;73.68;100141.25;5074446;28;20720;-81
2022/01/28 11:15:22;;;;;;;14.20;7.75;;;;;;;9.33;72.68;100161.50;5074345;28;20688;-79
2022/01/28 11:17:50;;;;;;;7.90;4.43;;;;;;;9.48;73.30;100201.50;5074467;28;20278;-78
2022/01/28 11:20:21;;;;;;;11.68;5.15;;;;;;;9.06;72.42;100145.38;5074464;28;20198;-75
2022/01/28 11:22:56;;;;;;;11.00;6.18;;;;;;;9.51;72.01;100206.72;5074747;28;20199;-76
2022/01/28 11:25:40;;;;;;;11.40;3.78;;;;;;;9.52;70.91;100206.78;5074693;28;20191;-75
2022/01/28 11:28:11;;;;;;;7.53;4.90;;;;;;;9.57;70.86;100204.25;5074210;28;20202;-78
2022/01/28 11:30:47;;;;;;;6.65;4.70;;;;;;;9.13;70.64;100142.09;5074269;28;20689;-75
2022/01/28 11:33:15;;;;;;;15.13;5.18;;;;;;;9.61;70.87;100214.72;5073805;28;20195;-75
2022/01/28 11:35:59;;;;;;;16.25;6.10;;;;;;;9.35;71.39;100201.22;5074418;28;20190;-76
2022/01/28 11:38:39;;;;;;;6.45;4.88;;;;;;;9.44;71.55;100222.13;5073729;28;20631;-76
2022/01/28 11:41:12;;;;;;;7.95;4.57;;;;;;;9.38;72.62;100203.88;5074379;28;20206;-80
2022/01/28 11:43:48;;;;;;;6.78;4.10;;;;;;;9.21;72.78;100175.88;5074582;28;20201;-78
2022/01/28 11:46:26;;;;;;;7.43;5.22;;;;;;;9.29;72.68;100193.34;5072746;28;20691;-80
2022/01/28 11:49:21;;;;;;;10.93;4.32;;;;;;;9.37;73.09;100191.78;5074117;28;20194;-80
2022/01/28 11:51:48;;;;;;;12.75;7.00;;;;;;;9.18;72.38;100165.47;5074172;28;20222;-78
2022/01/28 11:54:16;;;;;;;11.60;6.57;;;;;;;9.29;71.44;100190.75;5073976;28;20206;-77
2022/01/28 11:57:14;;;;;;;11.73;6.30;;;;;;;9.17;72.20;100184.41;5074149;28;20199;-76
2022/01/28 11:59:41;;;;;;;9.55;4.80;;;;;;;9.16;71.84;100204.25;5073847;28;20657;-78
2022/01/28 12:02:13;;;;;;;16.10;9.05;;;;;;;9.13;71.93;100196.41;5073573;28;20233;-80
2022/01/28 12:04:41;;;;;;;40.72;9.85;;;;;;;8.94;71.38;100189.09;5073744;28;20195;-77
2022/01/28 12:07:13;;;;;;;12.82;6.68;;;;;;;8.89;72.24;100208.78;5072762;28;20207;-78
2022/01/28 12:09:40;;;;;;;17.30;6.63;;;;;;;8.81;72.09;100211.19;5073675;28;20198;-74
2022/01/28 12:12:10;;;;;;;18.58;8.70;;;;;;;8.91;72.34;100222.63;5073515;28;20774;-77
2022/01/28 12:15:04;;;;;;;18.20;7.55;;;;;;;8.86;73.62;100213.88;5073507;28;20738;-78
2022/01/28 12:17:43;;;;;;;17.83;8.20;;;;;;;8.60;74.57;100204.59;5073553;28;20202;-77
2022/01/28 12:20:23;;;;;;;15.20;4.18;;;;;;;8.66;74.96;100217.69;5073514;28;20665;-75
2022/01/28 12:23:18;;;;;;;8.73;4.87;;;;;;;8.30;73.72;100169.44;5073682;28;20199;-77
2022/01/28 12:25:50;;;;;;;7.38;3.92;;;;;;;8.52;73.53;100207.03;5060877;28;20327;-77